Hagood, South Carolina
Current Conditions -  °F | °C
As of 2:58 PM on Thursday 27 Nov 2014 (Local Time) from KSSC Reporting Station
Broken Clouds Broken Clouds  
Wind Chill: 53°   Ceiling: 6500
Heat Index: 53°   Visibility: 10mi
Dew Point: 27°   Wind: 13mph
Humidity: 36%   Direction: 310°NW
Pressure: 30.11"   Gusts: NA
Location:  34.1106°N, 80.4967°W
Report Text: KSSC 271958Z AUTO 31011KT 10SM BKN065 12/M03 A3011 RMK AO2 SLP198 T01181029 $
Loading
Personal Weather Stations






























Interactive Weather Map New forecast layout! Learn more

10-Day Weather Forecast

Advertisements
Track Severe Weather on mobile